Time;durP1;ratioP1;P1;durP2;ratioP2;P2;SDS_P1;SDS_P2;PMS_P1;PMS_P2;Temp;Humidity;BMP_temperature;BMP_pressure;BME280_temperature;BME280_humidity;BME280_pressure;Samples;Min_cycle;Max_cycle;Signal;HPM_P1;HPM_P2
2022/05/02 00:00:40;;;;;;;3.33;3.10;;;;;;;6.50;62.47;102254.75;5015507;28;20422;-45
2022/05/02 00:03:09;;;;;;;3.37;3.07;;;;;;;6.42;63.45;102246.63;5015334;28;20444;-45
2022/05/02 00:05:38;;;;;;;3.00;2.90;;;;;;;6.33;64.22;102252.72;5015798;28;20523;-48
2022/05/02 00:08:06;;;;;;;3.50;3.33;;;;;;;6.27;64.08;102254.09;5015881;28;20433;-48
2022/05/02 00:10:34;;;;;;;3.20;3.10;;;;;;;6.24;64.10;102248.22;5015412;28;20953;-47
2022/05/02 00:13:02;;;;;;;3.27;3.17;;;;;;;6.20;63.79;102244.16;5014914;28;20463;-47
2022/05/02 00:15:31;;;;;;;6.93;3.90;;;;;;;6.17;63.64;102241.75;5015894;28;20432;-47
2022/05/02 00:17:59;;;;;;;4.60;3.20;;;;;;;6.15;64.16;102243.72;5015764;28;20441;-48
2022/05/02 00:20:30;;;;;;;3.40;3.30;;;;;;;6.09;63.96;102239.78;5014867;28;20439;-49
2022/05/02 00:22:59;;;;;;;3.73;3.53;;;;;;;6.02;64.24;102242.09;5015211;28;20468;-49
2022/05/02 00:25:27;;;;;;;3.47;3.37;;;;;;;5.94;64.84;102239.25;5015094;28;20484;-47
2022/05/02 00:27:55;;;;;;;3.80;3.67;;;;;;;5.86;65.76;102238.22;5015718;28;20436;-48
2022/05/02 00:30:23;;;;;;;3.70;3.60;;;;;;;5.83;65.28;102241.94;5015486;28;20807;-45
2022/05/02 00:32:51;;;;;;;3.73;3.63;;;;;;;5.77;65.33;102233.66;5014963;28;20468;-47
2022/05/02 00:35:19;;;;;;;3.90;3.60;;;;;;;5.69;65.85;102238.78;5015544;28;20439;-47
2022/05/02 00:37:48;;;;;;;4.10;3.90;;;;;;;5.64;66.37;102235.69;5015490;28;20432;-45
2022/05/02 00:40:17;;;;;;;3.60;3.40;;;;;;;5.56;66.51;102239.81;5015060;28;20954;-45
2022/05/02 00:42:46;;;;;;;4.30;4.10;;;;;;;5.49;66.49;102233.34;5014631;28;20475;-46
2022/05/02 00:45:16;;;;;;;6.50;4.03;;;;;;;5.44;67.15;102234.69;5015261;28;20433;-47
2022/05/02 00:47:51;;;;;;;4.00;3.80;;;;;;;5.39;67.03;102235.06;5015257;28;20475;-48
2022/05/02 00:50:32;;;;;;;4.37;3.80;;;;;;;5.34;67.48;102229.34;5014997;28;20427;-48
2022/05/02 00:53:02;;;;;;;3.40;3.30;;;;;;;5.30;68.04;102235.84;5015241;28;20465;-48
2022/05/02 00:55:30;;;;;;;3.93;3.57;;;;;;;5.26;67.75;102233.56;5015052;28;20509;-48
2022/05/02 00:57:59;;;;;;;3.73;3.63;;;;;;;5.22;67.72;102232.13;5015507;28;20441;-47
2022/05/02 01:00:28;;;;;;;3.33;3.20;;;;;;;5.18;67.92;102228.06;5039145;22;20433;-50
2022/05/02 01:02:56;;;;;;;3.80;3.60;;;;;;;5.12;68.34;102229.41;4993758;28;20454;-45
2022/05/02 01:05:24;;;;;;;4.03;3.83;;;;;;;5.09;68.91;102215.59;4993008;28;21002;-46
2022/05/02 01:07:51;;;;;;;4.13;3.87;;;;;;;5.01;68.97;102225.00;4993725;28;20441;-48
2022/05/02 01:10:20;;;;;;;4.20;4.00;;;;;;;4.96;69.19;102221.03;4993508;28;20430;-45
2022/05/02 01:12:49;;;;;;;3.83;3.70;;;;;;;4.92;69.28;102227.53;4990662;28;20458;-47
2022/05/02 01:15:17;;;;;;;4.13;3.83;;;;;;;4.88;69.16;102228.75;4993444;28;20438;-45
2022/05/02 01:17:45;;;;;;;4.70;4.40;;;;;;;4.84;69.25;102220.22;4993463;28;20536;-47
2022/05/02 01:20:15;;;;;;;4.57;4.37;;;;;;;4.80;69.33;102221.44;4993284;28;20445;-46
2022/05/02 01:22:43;;;;;;;3.73;3.63;;;;;;;4.73;70.12;102222.88;4992743;28;20470;-47
2022/05/02 01:25:11;;;;;;;4.77;4.43;;;;;;;4.66;70.37;102228.81;4993255;28;20953;-45
2022/05/02 01:27:39;;;;;;;3.93;3.83;;;;;;;4.60;70.50;102219.53;4992614;28;20473;-49
2022/05/02 01:30:08;;;;;;;3.80;3.70;;;;;;;4.55;70.85;102215.59;4992972;28;20531;-46
2022/05/02 01:32:35;;;;;;;4.77;4.47;;;;;;;4.50;70.96;102228.31;4992383;28;20986;-44
2022/05/02 01:35:03;;;;;;;5.00;4.70;;;;;;;4.45;70.99;102228.66;4993157;28;20931;-46
2022/05/02 01:37:32;;;;;;;5.40;5.20;;;;;;;4.40;71.86;102228.19;4993091;28;20434;-46
2022/05/02 01:39:59;;;;;;;4.27;4.07;;;;;;;4.35;72.34;102223.28;4993039;28;20434;-45
2022/05/02 01:42:27;;;;;;;4.43;4.23;;;;;;;4.32;72.55;102223.53;4992164;28;20993;-44
2022/05/02 01:44:55;;;;;;;4.50;4.30;;;;;;;4.28;72.27;102219.44;4992804;28;20939;-47
2022/05/02 01:47:22;;;;;;;4.07;3.97;;;;;;;4.24;72.63;102223.28;4974575;28;20482;-46
2022/05/02 01:49:50;;;;;;;4.67;4.47;;;;;;;4.21;72.62;102226.16;4954205;29;20451;-46
2022/05/02 01:52:18;;;;;;;4.20;4.10;;;;;;;4.14;72.48;102222.31;4953441;28;20478;-47
2022/05/02 01:54:46;;;;;;;4.40;4.00;;;;;;;4.09;72.84;102219.19;4954316;28;20443;-46
2022/05/02 01:57:15;;;;;;;4.60;4.40;;;;;;;4.03;72.83;102221.47;4953928;28;20531;-46
2022/05/02 01:59:42;;;;;;;6.87;4.47;;;;;;;3.98;73.72;102227.09;4953928;28;20979;-46
2022/05/02 02:02:10;;;;;;;4.13;3.93;;;;;;;3.96;73.82;102222.91;4953087;28;20482;-47
2022/05/02 02:07:23;;;;;;;4.00;3.87;;;;;;;3.84;74.33;102228.16;4954045;28;20559;-45
2022/05/02 02:09:52;;;;;;;4.10;3.90;;;;;;;3.79;74.38;102222.38;4953827;28;20436;-44
2022/05/02 02:12:19;;;;;;;4.80;4.60;;;;;;;3.72;74.49;102220.34;4953249;28;21000;-44
2022/05/02 02:14:47;;;;;;;4.83;4.63;;;;;;;3.66;74.72;102219.00;4953828;28;20458;-48
2022/05/02 02:17:15;;;;;;;4.40;4.10;;;;;;;3.63;74.95;102210.47;4953985;28;20468;-45
2022/05/02 02:19:43;;;;;;;3.63;3.53;;;;;;;3.62;75.41;102211.44;4953840;28;20817;-46
2022/05/02 02:22:20;;;;;;;3.97;3.77;;;;;;;3.57;75.23;102209.16;4952981;28;20842;-44
2022/05/02 02:24:49;;;;;;;5.40;5.00;;;;;;;3.57;75.52;102218.84;4953894;28;20442;-47
2022/05/02 02:27:18;;;;;;;5.03;4.83;;;;;;;3.59;76.34;102209.00;4953776;28;20515;-44
2022/05/02 02:29:46;;;;;;;4.33;4.20;;;;;;;3.56;76.46;102219.81;4953732;28;20446;-46
2022/05/02 02:32:13;;;;;;;4.83;4.63;;;;;;;3.52;76.76;102224.50;4953076;28;20468;-47
2022/05/02 02:34:41;;;;;;;4.70;4.50;;;;;;;3.47;76.64;102221.34;4953520;28;20440;-44
2022/05/02 02:37:09;;;;;;;4.30;4.10;;;;;;;3.45;76.94;102220.63;4953820;28;20436;-49
2022/05/02 02:39:36;;;;;;;4.50;4.30;;;;;;;3.45;77.07;102225.91;4955107;28;20443;-47
2022/05/02 02:42:04;;;;;;;4.40;4.30;;;;;;;3.40;77.37;102224.56;4957015;28;20476;-50
2022/05/02 02:44:33;;;;;;;5.23;4.80;;;;;;;3.37;77.33;102230.06;4957462;28;20436;-48
2022/05/02 02:47:01;;;;;;;5.13;4.70;;;;;;;3.35;77.27;102225.72;4972706;28;20475;-44
2022/05/02 02:49:28;;;;;;;4.40;4.20;;;;;;;3.35;77.39;102223.09;4976642;28;20430;-49
2022/05/02 02:51:56;;;;;;;5.00;4.60;;;;;;;3.29;77.87;102218.28;4976024;28;20488;-47
2022/05/02 02:54:24;;;;;;;5.00;4.60;;;;;;;3.25;78.03;102221.28;4976777;28;20441;-47
2022/05/02 02:56:51;;;;;;;4.53;4.33;;;;;;;3.23;78.41;102216.09;4976638;28;20435;-47
2022/05/02 02:59:19;;;;;;;4.83;4.53;;;;;;;3.19;78.52;102212.03;4976481;28;20445;-45
2022/05/02 03:01:48;;;;;;;5.30;4.63;;;;;;;3.17;78.70;102207.78;4975634;28;20817;-46
2022/05/02 03:07:01;;;;;;;5.87;5.50;;;;;;;3.12;79.12;102209.94;4976440;28;20477;-47
2022/05/02 03:09:29;;;;;;;5.10;4.90;;;;;;;3.08;79.58;102203.19;4976399;28;20434;-44
2022/05/02 03:11:58;;;;;;;5.40;4.90;;;;;;;3.08;79.69;102208.47;4975668;28;20465;-49
2022/05/02 03:14:26;;;;;;;5.73;5.13;;;;;;;3.05;79.47;102199.00;4976085;28;20423;-49
2022/05/02 03:16:54;;;;;;;6.83;5.53;;;;;;;3.04;79.89;102204.41;4976347;28;20446;-51
2022/05/02 03:19:22;;;;;;;5.23;4.93;;;;;;;3.03;80.11;102200.91;4976310;28;20439;-46
2022/05/02 03:21:50;;;;;;;5.00;4.60;;;;;;;3.02;80.24;102204.50;4975506;28;20499;-46
2022/05/02 03:24:17;;;;;;;5.70;5.27;;;;;;;2.99;80.63;102209.13;4976099;28;20439;-45
2022/05/02 03:26:45;;;;;;;5.50;5.20;;;;;;;2.97;81.03;102198.72;4975640;28;20477;-47
2022/05/02 03:29:13;;;;;;;5.37;5.17;;;;;;;2.95;81.07;102203.28;4976127;28;20434;-45
2022/05/02 03:31:41;;;;;;;6.23;5.93;;;;;;;2.94;81.36;102201.59;4975341;28;20473;-45
2022/05/02 03:34:10;;;;;;;5.67;5.37;;;;;;;2.95;81.52;102199.78;4975863;28;20924;-44
2022/05/02 03:36:37;;;;;;;5.43;5.23;;;;;;;2.94;81.46;102198.09;4975690;28;20955;-46
2022/05/02 03:39:05;;;;;;;5.87;5.40;;;;;;;2.92;81.25;102195.59;4975806;28;20437;-46
2022/05/02 03:41:33;;;;;;;5.23;5.03;;;;;;;2.92;81.47;102200.88;4974829;28;20471;-44
2022/05/02 03:44:00;;;;;;;5.07;4.77;;;;;;;2.94;81.70;102200.75;4975819;28;20434;-44
2022/05/02 03:46:28;;;;;;;6.53;5.57;;;;;;;2.94;81.82;102203.38;4975656;28;20534;-48
2022/05/02 03:48:57;;;;;;;7.53;5.67;;;;;;;2.95;81.32;102191.88;4975591;28;20555;-45
2022/05/02 03:51:26;;;;;;;6.87;6.37;;;;;;;2.96;81.60;102196.19;4974638;28;20474;-50
2022/05/02 03:53:54;;;;;;;6.40;6.10;;;;;;;2.95;81.64;102191.88;4975478;28;20450;-49
2022/05/02 03:56:21;;;;;;;6.43;6.13;;;;;;;2.96;81.69;102186.50;4975844;28;20439;-45
2022/05/02 03:58:49;;;;;;;5.93;5.53;;;;;;;2.98;81.80;102192.50;4975696;28;20423;-46
2022/05/02 04:01:18;;;;;;;6.13;5.83;;;;;;;2.98;82.00;102197.78;4974936;28;20473;-49
2022/05/02 04:03:46;;;;;;;5.50;5.20;;;;;;;3.03;81.86;102198.28;4975525;28;20470;-48
2022/05/02 04:06:14;;;;;;;6.30;5.90;;;;;;;3.06;82.62;102195.41;4975204;28;20538;-46
2022/05/02 04:08:43;;;;;;;5.23;5.03;;;;;;;3.09;82.65;102196.97;4974992;28;20475;-44
2022/05/02 04:11:10;;;;;;;5.03;4.83;;;;;;;3.13;82.52;102209.00;4974363;28;20475;-44
2022/05/02 04:13:39;;;;;;;5.87;5.47;;;;;;;3.19;82.94;102198.84;4975181;28;20439;-48
2022/05/02 04:16:06;;;;;;;5.57;5.17;;;;;;;3.27;82.98;102192.97;4975160;28;20435;-46
2022/05/02 04:18:34;;;;;;;5.63;5.23;;;;;;;3.41;82.94;102197.22;4975101;28;20813;-47
2022/05/02 04:21:02;;;;;;;4.60;4.40;;;;;;;3.50;82.87;102197.38;4974382;28;20458;-48
2022/05/02 04:23:30;;;;;;;5.40;5.10;;;;;;;3.67;83.08;102199.59;4975334;28;20431;-50
2022/05/02 04:25:59;;;;;;;6.57;6.17;;;;;;;4.01;83.64;102199.63;4975543;28;20441;-48
2022/05/02 04:28:26;;;;;;;4.40;4.20;;;;;;;4.61;84.50;102197.44;4974878;28;20489;-48
2022/05/02 04:30:54;;;;;;;5.17;4.93;;;;;;;5.01;82.74;102197.72;4974152;28;20459;-47
2022/05/02 04:33:21;;;;;;;5.17;4.90;;;;;;;5.48;82.26;102193.78;4974832;28;20439;-48
2022/05/02 04:35:49;;;;;;;5.60;4.60;;;;;;;6.01;81.93;102194.56;4974930;28;20439;-49
2022/05/02 04:38:16;;;;;;;4.30;4.10;;;;;;;6.62;80.29;102196.22;4974819;28;20434;-51
2022/05/02 04:40:44;;;;;;;4.27;3.87;;;;;;;7.30;77.78;102190.97;4974457;28;20455;-47
2022/05/02 04:43:13;;;;;;;4.53;4.23;;;;;;;8.02;76.03;102191.28;4974637;28;20442;-53
2022/05/02 04:45:41;;;;;;;4.50;4.20;;;;;;;8.61;74.09;102180.25;4974478;28;20431;-46
2022/05/02 04:48:10;;;;;;;8.40;5.93;;;;;;;9.38;73.61;102183.19;4974173;28;20474;-50
2022/05/02 04:50:38;;;;;;;7.10;6.07;;;;;;;10.23;73.24;102185.13;4974624;28;20467;-50
2022/05/02 04:53:06;;;;;;;7.03;6.23;;;;;;;11.10;70.69;102190.91;4954857;29;20447;-51
2022/05/02 04:55:33;;;;;;;5.93;5.53;;;;;;;11.85;63.75;102184.44;4955134;29;20910;-46
2022/05/02 04:58:01;;;;;;;5.43;5.03;;;;;;;12.33;57.23;102183.47;4955129;29;20802;-51
2022/05/02 05:00:30;;;;;;;5.63;5.33;;;;;;;12.96;57.10;102185.16;4954466;29;20432;-45
2022/05/02 05:02:58;;;;;;;5.13;4.80;;;;;;;13.54;56.37;102184.56;4953770;28;20472;-52
2022/05/02 05:05:28;;;;;;;6.23;5.73;;;;;;;13.95;53.33;102185.03;4954997;29;20436;-48
2022/05/02 05:07:56;;;;;;;6.50;6.13;;;;;;;14.30;51.08;102178.91;4955009;29;20476;-50
2022/05/02 05:10:23;;;;;;;5.07;4.67;;;;;;;14.76;51.33;102185.72;4954600;29;20436;-50
2022/05/02 05:13:02;;;;;;;5.10;4.80;;;;;;;15.38;50.63;102172.50;4954164;28;21019;-50
2022/05/02 05:18:41;;;;;;;5.43;5.10;;;;;;;16.38;47.22;102166.78;4954678;28;20507;-50
2022/05/02 05:21:23;;;;;;;4.67;4.37;;;;;;;16.85;45.19;102171.34;4953889;28;20487;-50
2022/05/02 05:24:17;;;;;;;4.43;4.23;;;;;;;17.49;47.53;102168.97;4954851;29;20458;-53
2022/05/02 05:26:53;;;;;;;4.53;4.23;;;;;;;18.14;45.50;102171.59;4954567;29;20447;-49
2022/05/02 05:29:35;;;;;;;5.43;5.03;;;;;;;18.47;45.35;102165.25;4954476;29;20501;-52
2022/05/02 05:32:26;;;;;;;4.60;4.27;;;;;;;18.80;40.20;102163.28;4953753;28;21003;-52
2022/05/02 05:35:03;;;;;;;4.63;4.20;;;;;;;17.97;41.41;102164.19;4954561;29;20442;-52
2022/05/02 05:37:46;;;;;;;5.00;4.77;;;;;;;18.48;44.39;102167.75;4954513;29;20441;-49
2022/05/02 05:40:24;;;;;;;5.10;4.80;;;;;;;18.91;41.90;102159.88;4954005;29;20435;-53
2022/05/02 05:43:03;;;;;;;5.03;4.63;;;;;;;18.89;43.36;102171.94;4954072;28;20548;-52
2022/05/02 05:45:48;;;;;;;4.83;4.43;;;;;;;18.75;43.13;102161.22;4955227;28;20438;-50
2022/05/02 05:48:28;;;;;;;5.20;4.90;;;;;;;19.56;42.77;102161.28;4965392;28;20484;-52
2022/05/02 05:51:32;;;;;;;5.87;5.47;;;;;;;19.53;39.02;102163.63;4972980;28;20459;-51
2022/05/02 05:54:16;;;;;;;4.80;4.60;;;;;;;19.56;39.17;102164.00;4973610;28;20787;-51
2022/05/02 05:56:54;;;;;;;5.37;4.97;;;;;;;19.31;41.10;102163.13;4973239;28;20438;-52
2022/05/02 05:59:31;;;;;;;4.73;4.53;;;;;;;18.85;39.75;102163.44;4973392;28;20426;-49
2022/05/02 06:02:07;;;;;;;5.70;5.40;;;;;;;17.74;41.70;102159.22;4982877;28;20473;-45
2022/05/02 06:04:38;;;;;;;5.10;4.90;;;;;;;17.64;43.85;102161.53;4992878;28;20815;-52
2022/05/02 06:07:08;;;;;;;5.30;5.07;;;;;;;18.64;40.60;102158.34;4992532;28;20437;-50
2022/05/02 06:09:37;;;;;;;5.30;5.00;;;;;;;18.85;43.07;102166.13;4992784;28;20473;-50
2022/05/02 06:12:06;;;;;;;5.80;5.40;;;;;;;19.38;39.28;102163.09;4991970;28;21025;-50
2022/05/02 06:18:27;;;;;;;5.83;5.53;;;;;;;19.58;38.67;102166.50;4992615;28;20430;-47
2022/05/02 06:20:15;;;;;;;5.23;4.93;;;;;;;20.74;40.19;102160.00;4992058;28;20935;-47
2022/05/02 06:22:43;;;;;;;5.87;5.57;;;;;;;21.04;38.40;102160.00;4991870;28;20474;-53
2022/05/02 06:25:11;;;;;;;5.30;5.00;;;;;;;20.59;36.49;102156.88;4992422;28;20433;-54
2022/05/02 06:27:42;;;;;;;4.73;4.33;;;;;;;21.06;36.71;102157.88;4992415;28;20811;-50
2022/05/02 06:30:11;;;;;;;7.57;5.27;;;;;;;21.73;37.48;102156.59;4991836;28;20473;-46
2022/05/02 06:32:43;;;;;;;4.07;3.77;;;;;;;22.15;36.61;102149.13;4991974;28;20473;-48
2022/05/02 06:35:10;;;;;;;3.80;3.70;;;;;;;22.59;35.97;102162.00;4992327;28;20421;-52
2022/05/02 06:37:48;;;;;;;5.03;4.63;;;;;;;23.12;33.26;102155.41;4992213;28;20456;-51
2022/05/02 06:40:23;;;;;;;4.50;4.20;;;;;;;23.08;30.77;102167.88;4992100;28;20426;-52
2022/05/02 06:43:04;;;;;;;4.67;4.37;;;;;;;22.15;31.54;102157.28;4991723;28;20464;-46
2022/05/02 06:45:44;;;;;;;5.00;4.60;;;;;;;21.99;32.00;102158.84;4991186;28;20425;-50
2022/05/02 06:48:36;;;;;;;4.00;3.80;;;;;;;21.96;34.56;102158.47;4980666;28;20427;-51
2022/05/02 06:51:07;;;;;;;4.90;4.60;;;;;;;22.00;32.06;102149.63;4971875;28;20466;-51
2022/05/02 06:54:03;;;;;;;5.27;4.67;;;;;;;21.90;31.46;102156.72;4972821;28;20434;-49
2022/05/02 06:56:41;;;;;;;3.97;3.70;;;;;;;22.50;35.03;102155.31;4972752;28;20438;-51
2022/05/02 06:59:26;;;;;;;4.80;4.43;;;;;;;22.89;31.49;102153.63;4972688;28;20430;-51
2022/05/02 07:01:59;;;;;;;6.70;4.20;;;;;;;22.75;31.02;102156.91;4971719;28;20477;-53
2022/05/02 07:04:50;;;;;;;3.90;3.70;;;;;;;22.42;30.68;102149.44;4972766;28;20441;-53
2022/05/02 07:07:38;;;;;;;4.17;3.97;;;;;;;22.79;30.06;102158.06;4973168;28;20442;-52
2022/05/02 07:10:13;;;;;;;4.20;3.90;;;;;;;22.72;33.14;102160.94;4972528;28;20832;-48
2022/05/02 07:12:50;;;;;;;3.83;3.70;;;;;;;21.97;32.70;102154.72;4972064;28;20488;-51
2022/05/02 07:15:22;;;;;;;4.10;3.90;;;;;;;21.87;30.55;102149.84;4972868;28;20430;-50
2022/05/02 07:18:01;;;;;;;4.10;3.90;;;;;;;21.50;31.38;102159.28;4972337;28;20434;-47
2022/05/02 07:20:36;;;;;;;3.43;3.13;;;;;;;21.94;32.63;102155.19;4972590;28;20458;-47
2022/05/02 07:23:25;;;;;;;4.17;3.77;;;;;;;21.57;29.63;102159.16;4972480;28;20468;-48
2022/05/02 07:25:58;;;;;;;3.80;3.40;;;;;;;21.60;31.43;102155.97;4974029;28;20442;-52
2022/05/02 07:28:34;;;;;;;3.30;3.00;;;;;;;21.24;30.69;102163.25;4975827;28;20430;-48
2022/05/02 07:31:02;;;;;;;3.57;3.47;;;;;;;21.05;31.14;102158.09;4975661;28;20466;-51
2022/05/02 07:33:35;;;;;;;3.63;3.40;;;;;;;20.81;32.02;102166.16;4975714;28;20950;-51
2022/05/02 07:36:04;;;;;;;3.23;3.10;;;;;;;20.72;31.84;102155.88;4975863;28;20438;-52
2022/05/02 07:38:33;;;;;;;2.97;2.87;;;;;;;20.74;32.42;102159.16;4975748;28;20924;-47
2022/05/02 07:41:25;;;;;;;2.90;2.70;;;;;;;19.84;32.30;102158.13;4974748;28;20472;-52
2022/05/02 07:43:58;;;;;;;2.73;2.53;;;;;;;19.70;33.09;102162.00;4975635;28;20964;-48
2022/05/02 07:46:28;;;;;;;3.27;3.07;;;;;;;19.24;33.62;102167.75;4978081;28;20438;-48
2022/05/02 07:48:58;;;;;;;3.30;3.10;;;;;;;18.08;35.37;102160.81;4982609;28;20442;-47
2022/05/02 07:51:26;;;;;;;2.70;2.60;;;;;;;17.40;34.96;102160.25;4974684;28;20470;-48
2022/05/02 07:53:57;;;;;;;2.63;2.53;;;;;;;17.19;35.67;102157.75;4975420;28;20445;-50
2022/05/02 07:56:27;;;;;;;3.57;3.27;;;;;;;16.57;37.08;102149.94;4975945;28;20441;-47
2022/05/02 07:58:57;;;;;;;3.20;2.80;;;;;;;16.14;38.71;102151.97;4975303;28;20427;-51
2022/05/02 08:01:26;;;;;;;3.13;2.93;;;;;;;15.69;38.04;102150.66;4974715;28;20474;-48
2022/05/02 08:03:54;;;;;;;2.90;2.67;;;;;;;15.87;37.56;102150.16;4975242;28;20442;-47
2022/05/02 08:06:41;;;;;;;3.23;3.00;;;;;;;15.76;39.35;102142.66;4975315;28;20446;-49
2022/05/02 08:09:25;;;;;;;2.77;2.53;;;;;;;15.77;39.73;102144.31;4975317;28;20437;-48
2022/05/02 08:12:02;;;;;;;4.70;2.97;;;;;;;16.05;38.76;102142.41;4974493;28;20991;-50
2022/05/02 08:14:43;;;;;;;3.10;3.00;;;;;;;16.37;38.07;102140.91;4975042;28;20423;-46
2022/05/02 08:17:23;;;;;;;3.20;3.00;;;;;;;16.60;38.38;102138.75;4975364;28;20449;-50
2022/05/02 08:19:58;;;;;;;3.10;3.00;;;;;;;16.75;37.65;102142.13;4975225;28;20454;-47
2022/05/02 08:28:33;;;;;;;3.70;3.43;;;;;;;16.29;39.22;102139.22;4937428;28;20957;-49
2022/05/02 08:31:12;;;;;;;3.40;3.20;;;;;;;15.99;39.19;102143.19;4974045;28;20696;-49
2022/05/02 08:33:47;;;;;;;4.47;3.50;;;;;;;15.77;40.47;102136.25;4975220;28;20497;-50
2022/05/02 08:36:28;;;;;;;3.80;3.60;;;;;;;15.25;40.32;102139.31;4974385;28;20438;-47
2022/05/02 08:39:02;;;;;;;3.80;3.60;;;;;;;14.95;39.90;102144.81;4974402;28;20430;-52
2022/05/02 08:42:11;;;;;;;3.90;3.60;;;;;;;15.32;39.38;102137.53;4973877;28;20980;-47
2022/05/02 08:45:28;;;;;;;3.43;3.23;;;;;;;15.44;38.09;102136.78;4974466;28;20463;-46
2022/05/02 08:48:32;;;;;;;4.10;3.70;;;;;;;15.33;41.28;102136.47;4978542;28;20526;-46
2022/05/02 08:51:48;;;;;;;4.73;3.80;;;;;;;15.51;38.60;102139.56;4973513;28;20477;-48
2022/05/02 08:54:52;;;;;;;4.13;3.90;;;;;;;15.45;38.24;102145.69;4993955;28;20510;-44
2022/05/02 08:57:55;;;;;;;4.67;4.27;;;;;;;15.68;38.19;102140.09;4984463;28;20444;-50
2022/05/02 09:00:34;;;;;;;4.10;3.87;;;;;;;15.25;40.22;102145.53;4993130;28;20430;-44
2022/05/02 09:03:49;;;;;;;3.60;3.40;;;;;;;15.30;39.29;102131.50;4993506;28;20906;-48
2022/05/02 09:06:42;;;;;;;3.63;3.53;;;;;;;15.31;38.20;102133.16;4993380;28;20441;-46
2022/05/02 09:09:41;;;;;;;3.50;3.27;;;;;;;15.55;37.09;102129.25;4993682;28;20450;-45
2022/05/02 09:12:53;;;;;;;3.10;2.90;;;;;;;15.65;36.17;102125.19;4992924;28;20835;-46
2022/05/02 09:16:03;;;;;;;3.10;3.00;;;;;;;15.80;36.33;102125.09;4993473;28;20437;-49
2022/05/02 09:19:22;;;;;;;2.80;2.70;;;;;;;16.51;35.17;102116.53;4972737;28;20541;-47
2022/05/02 09:22:25;;;;;;;6.40;3.67;;;;;;;16.19;35.43;102119.91;4967883;28;20465;-45
2022/05/02 09:25:04;;;;;;;3.10;2.80;;;;;;;16.14;33.81;102113.47;4972102;28;20458;-44
2022/05/02 09:27:37;;;;;;;3.17;3.07;;;;;;;16.07;35.48;102112.63;4993371;28;20540;-43
2022/05/02 09:30:49;;;;;;;3.13;2.93;;;;;;;16.14;34.20;102108.91;4993233;28;20479;-49
2022/05/02 09:33:31;;;;;;;3.67;3.37;;;;;;;16.53;34.12;102103.69;4992844;28;20488;-47
2022/05/02 09:36:05;;;;;;;4.83;2.87;;;;;;;16.97;33.58;102094.25;4993135;28;20807;-47
2022/05/02 09:38:48;;;;;;;3.40;3.20;;;;;;;17.15;33.21;102103.41;4993107;28;20435;-47
2022/05/02 09:41:36;;;;;;;2.97;2.83;;;;;;;17.59;33.25;102093.88;4992082;28;20480;-50
2022/05/02 09:50:07;;;;;;;4.93;2.90;;;;;;;17.04;32.89;102089.72;4972952;28;20423;-50
2022/05/02 09:52:58;;;;;;;2.63;2.43;;;;;;;17.40;32.46;102079.34;4957713;28;20530;-49
2022/05/02 09:58:38;;;;;;;2.87;2.67;;;;;;;17.86;32.63;102076.56;4953683;29;20810;-45
2022/05/02 10:01:17;;;;;;;4.60;3.00;;;;;;;17.72;30.90;102076.81;4953000;28;20460;-51
2022/05/02 10:04:08;;;;;;;3.50;3.40;;;;;;;17.08;31.17;102072.91;4953909;29;20474;-48
2022/05/02 10:06:44;;;;;;;3.33;3.20;;;;;;;17.19;30.60;102062.56;4954187;29;20458;-49
2022/05/02 10:09:23;;;;;;;3.67;3.37;;;;;;;16.90;31.84;102075.41;4954042;29;20845;-47
2022/05/02 10:12:02;;;;;;;3.50;3.20;;;;;;;16.90;32.01;102071.88;4953125;28;20468;-49
2022/05/02 10:14:51;;;;;;;3.70;3.50;;;;;;;16.35;32.29;102057.66;4953732;29;20958;-48
2022/05/02 10:17:35;;;;;;;3.97;3.80;;;;;;;16.49;33.95;102063.88;4953884;29;20795;-47
2022/05/02 10:20:13;;;;;;;3.27;3.03;;;;;;;16.44;32.82;102055.59;4953856;29;20441;-52
2022/05/02 10:22:50;;;;;;;3.30;3.10;;;;;;;16.63;30.84;102057.56;4969163;28;20500;-51
2022/05/02 10:25:29;;;;;;;5.77;3.60;;;;;;;16.83;32.21;102068.34;4973038;28;20434;-46
2022/05/02 10:28:15;;;;;;;2.97;2.77;;;;;;;16.70;31.77;102044.91;4972950;28;20435;-49
2022/05/02 10:30:53;;;;;;;2.80;2.70;;;;;;;16.73;31.24;102049.88;4972120;28;20482;-47
2022/05/02 10:33:26;;;;;;;2.97;2.77;;;;;;;16.78;30.46;102051.97;4973051;28;20446;-48
2022/05/02 10:35:55;;;;;;;2.97;2.77;;;;;;;17.05;32.13;102054.47;4972782;28;20435;-46
2022/05/02 10:38:29;;;;;;;2.47;2.37;;;;;;;17.56;31.49;102053.84;4972859;28;20435;-50
2022/05/02 10:41:07;;;;;;;3.17;2.97;;;;;;;17.31;29.51;102036.63;4972339;28;20802;-47
2022/05/02 10:43:37;;;;;;;3.33;3.03;;;;;;;17.09;30.09;102041.41;4972911;28;20441;-47
2022/05/02 10:46:05;;;;;;;2.80;2.70;;;;;;;16.84;30.13;102046.59;4980591;28;20432;-46
2022/05/02 10:48:41;;;;;;;3.07;2.83;;;;;;;17.07;30.83;102044.31;4992087;28;20543;-45
2022/05/02 10:51:14;;;;;;;3.27;3.07;;;;;;;17.56;30.88;102043.88;4991358;28;20979;-44
2022/05/02 10:53:58;;;;;;;3.20;3.00;;;;;;;17.89;29.31;102024.88;4992358;28;20433;-50
2022/05/02 10:56:35;;;;;;;4.50;2.90;;;;;;;17.83;28.59;102028.44;4992219;28;20446;-47
2022/05/02 10:59:04;;;;;;;2.40;2.23;;;;;;;17.77;27.29;102017.69;4992011;28;20438;-45
2022/05/02 11:01:58;;;;;;;2.90;2.80;;;;;;;17.19;28.64;102017.56;4994378;28;20470;-43
2022/05/02 11:04:52;;;;;;;3.33;2.60;;;;;;;16.90;29.15;102021.53;4995821;28;20464;-45
2022/05/02 11:07:27;;;;;;;2.80;2.60;;;;;;;17.14;27.70;102017.38;4995791;28;20449;-42
2022/05/02 11:10:07;;;;;;;2.40;2.30;;;;;;;16.82;29.10;102024.41;4995946;28;20432;-45
2022/05/02 11:12:40;;;;;;;2.87;2.63;;;;;;;16.54;31.39;102013.84;4995010;28;20469;-44
2022/05/02 11:15:11;;;;;;;2.83;2.70;;;;;;;16.23;29.81;102015.38;4995865;28;20445;-46
2022/05/02 11:17:57;;;;;;;3.53;2.27;;;;;;;16.68;29.20;102013.84;4995597;28;20811;-48
2022/05/02 11:20:42;;;;;;;2.30;2.20;;;;;;;16.80;28.28;102007.63;4995519;28;20803;-42
2022/05/02 11:23:27;;;;;;;2.47;2.37;;;;;;;17.28;28.03;102010.09;4995377;28;20444;-46
2022/05/02 11:26:09;;;;;;;2.40;2.10;;;;;;;16.96;30.23;102004.53;4995381;28;20434;-48
2022/05/02 11:28:49;;;;;;;3.10;2.53;;;;;;;16.43;30.08;102006.31;4995666;28;20804;-48
2022/05/02 11:31:23;;;;;;;2.50;2.30;;;;;;;16.69;28.77;101997.47;4994667;28;20545;-45
2022/05/02 11:34:02;;;;;;;2.27;2.17;;;;;;;16.75;28.41;101999.34;4995320;28;20452;-47
2022/05/02 11:36:33;;;;;;;2.30;2.20;;;;;;;16.57;28.95;101999.13;4995105;28;20438;-46
2022/05/02 11:39:05;;;;;;;2.10;2.00;;;;;;;16.63;29.85;102001.00;4995612;28;20426;-45
2022/05/02 11:41:36;;;;;;;2.40;2.30;;;;;;;16.81;29.84;101992.31;4994720;28;20470;-43
2022/05/02 11:44:10;;;;;;;3.77;2.30;;;;;;;16.76;27.46;101987.53;4995225;28;20438;-46
2022/05/02 11:46:51;;;;;;;2.20;2.10;;;;;;;16.98;28.79;101991.66;4995182;28;20449;-49
2022/05/02 11:49:34;;;;;;;2.30;2.20;;;;;;;16.78;30.08;101985.47;4995174;28;20943;-47
2022/05/02 11:52:02;;;;;;;2.93;2.73;;;;;;;16.42;30.76;101987.69;4994359;28;20501;-46
2022/05/02 11:54:35;;;;;;;2.57;2.20;;;;;;;16.25;30.00;101991.75;4995116;28;20441;-46
2022/05/02 11:57:20;;;;;;;2.60;2.40;;;;;;;16.26;31.91;101994.25;4994969;28;20445;-43
2022/05/02 11:59:59;;;;;;;2.00;1.90;;;;;;;16.50;31.17;101991.00;4994854;28;20434;-48
2022/05/02 12:02:46;;;;;;;3.00;2.80;;;;;;;16.36;30.58;101983.94;4994063;28;20462;-43
2022/05/02 12:05:23;;;;;;;2.70;2.57;;;;;;;16.59;29.62;101987.09;4994824;28;20436;-43
2022/05/02 12:07:53;;;;;;;2.40;2.30;;;;;;;16.85;30.61;101980.88;4994918;28;20438;-47
2022/05/02 12:10:31;;;;;;;3.17;2.53;;;;;;;17.12;29.17;101974.44;4995102;28;20430;-48
2022/05/02 12:13:00;;;;;;;2.40;2.30;;;;;;;16.95;28.88;101969.69;4994226;28;20481;-46
2022/05/02 12:15:28;;;;;;;5.90;2.53;;;;;;;17.48;29.16;101973.94;4994646;28;20796;-42
2022/05/02 12:17:59;;;;;;;2.70;2.60;;;;;;;17.72;29.21;101974.31;4994340;28;20525;-49
2022/05/02 12:20:29;;;;;;;2.83;2.63;;;;;;;17.00;34.03;101969.88;4994507;28;20430;-49
2022/05/02 12:23:02;;;;;;;3.30;3.10;;;;;;;16.42;36.15;101966.13;4994193;28;20835;-45
2022/05/02 12:25:30;;;;;;;2.70;2.60;;;;;;;16.62;36.07;101963.47;4994528;28;20442;-44
2022/05/02 12:28:03;;;;;;;3.53;2.90;;;;;;;16.63;37.11;101963.28;4994406;28;20441;-47
2022/05/02 12:30:32;;;;;;;3.00;2.90;;;;;;;17.08;33.81;101961.59;4993981;28;20442;-46